Time;durP1;ratioP1;P1;durP2;ratioP2;P2;SDS_P1;SDS_P2;PMS_P1;PMS_P2;Temp;Humidity;BMP_temperature;BMP_pressure;BME280_temperature;BME280_humidity;BME280_pressure;Samples;Min_cycle;Max_cycle;Signal;HPM_P1;HPM_P2
2021/12/21 00:01:15;;;;;;;;;30.33;20.00;;;;;;;;4995009;28;45464;-69
2021/12/21 00:03:40;;;;;;;;;29.67;23.00;;;;;;;;4995604;28;45490;-69
2021/12/21 00:06:05;;;;;;;;;24.33;20.67;;;;;;;;4996085;28;45373;-69
2021/12/21 00:08:31;;;;;;;;;28.00;18.67;;;;;;;;4994363;28;45962;-69
2021/12/21 00:10:58;;;;;;;;;24.25;20.50;;;;;;;;4995008;28;45490;-69
2021/12/21 00:16:16;;;;;;;;;29.50;19.50;;;;;;;;4957952;28;45468;-69
2021/12/21 00:18:52;;;;;;;;;23.50;18.00;;;;;;;;4973912;28;45379;-69
2021/12/21 00:23:51;;;;;;;;;24.25;19.00;;;;;;;;4973231;28;45439;-69
2021/12/21 00:26:19;;;;;;;;;22.00;19.50;;;;;;;;4972930;28;45331;-69
2021/12/21 00:31:18;;;;;;;;;27.50;23.25;;;;;;;;4972476;28;46112;-69
2021/12/21 00:33:46;;;;;;;;;28.25;23.25;;;;;;;;4973305;28;45646;-69
2021/12/21 00:36:12;;;;;;;;;21.75;16.75;;;;;;;;4973510;28;45725;-69
2021/12/21 00:38:37;;;;;;;;;29.00;20.50;;;;;;;;4972856;28;46578;-69
2021/12/21 00:41:03;;;;;;;;;22.75;18.00;;;;;;;;4972403;28;45479;-69
2021/12/21 00:43:28;;;;;;;;;21.25;19.75;;;;;;;;4973430;28;45427;-69
2021/12/21 00:45:53;;;;;;;;;23.67;19.33;;;;;;;;4972633;28;45338;-69
2021/12/21 00:48:18;;;;;;;;;23.67;19.00;;;;;;;;4956851;28;46117;-69
2021/12/21 00:50:44;;;;;;;;;21.00;17.33;;;;;;;;4972699;28;45440;-69
2021/12/21 00:53:10;;;;;;;;;25.00;19.50;;;;;;;;4982992;28;45388;-69
2021/12/21 00:55:35;;;;;;;;;29.50;23.50;;;;;;;;4994288;28;45362;-69
2021/12/21 00:58:00;;;;;;;;;29.00;20.00;;;;;;;;4994524;28;46152;-69
2021/12/21 01:00:26;;;;;;;;;27.75;21.25;;;;;;;;4994843;28;45356;-69
2021/12/21 01:02:51;;;;;;;;;29.00;25.25;;;;;;;;4994903;28;45369;-69
2021/12/21 01:05:28;;;;;;;;;27.50;20.50;;;;;;;;4994787;28;45206;-68
2021/12/21 01:07:56;;;;;;;;;21.75;18.75;;;;;;;;4994411;28;45921;-69
2021/12/21 01:18:04;;;;;;;;;27.50;22.25;;;;;;;;4994173;28;45840;-69
2021/12/21 01:20:35;;;;;;;;;28.75;22.00;;;;;;;;4994279;28;45319;-68
2021/12/21 01:28:18;;;;;;;;;26.00;19.50;;;;;;;;4994190;28;45329;-68
2021/12/21 01:33:32;;;;;;;;;22.50;19.50;;;;;;;;4994809;28;45288;-69
2021/12/21 01:35:59;;;;;;;;;23.00;18.75;;;;;;;;4994179;28;45519;-69
2021/12/21 01:38:36;;;;;;;;;22.00;17.75;;;;;;;;4994087;28;45332;-69
2021/12/21 01:43:44;;;;;;;;;19.67;16.00;;;;;;;;4993766;28;45588;-69
2021/12/21 01:51:38;;;;;;;;;22.50;19.75;;;;;;;;4990531;28;45285;-69
2021/12/21 01:54:03;;;;;;;;;22.25;18.25;;;;;;;;4994333;28;45407;-69
2021/12/21 01:56:28;;;;;;;;;23.25;14.75;;;;;;;;4993873;28;45384;-69
2021/12/21 01:58:53;;;;;;;;;23.00;16.00;;;;;;;;4993267;28;45481;-69
2021/12/21 02:01:20;;;;;;;;;19.00;14.33;;;;;;;;4993833;28;45471;-69
2021/12/21 02:03:47;;;;;;;;;23.00;18.50;;;;;;;;4994321;28;45432;-69
2021/12/21 02:06:13;;;;;;;;;29.25;19.75;;;;;;;;4994371;28;45477;-69
2021/12/21 02:08:39;;;;;;;;;29.25;19.00;;;;;;;;4993883;28;46385;-69
2021/12/21 02:11:04;;;;;;;;;26.33;18.00;;;;;;;;4993739;28;45479;-69
2021/12/21 02:13:33;;;;;;;;;27.25;19.25;;;;;;;;4993614;28;45417;-69
2021/12/21 02:15:59;;;;;;;;;13.00;11.50;;;;;;;;4993343;28;45297;-69
2021/12/21 02:18:49;;;;;;;;;29.25;19.50;;;;;;;;4994119;28;45369;-68
2021/12/21 02:21:24;;;;;;;;;29.00;18.25;;;;;;;;4992663;28;45349;-69
2021/12/21 02:23:51;;;;;;;;;22.25;14.25;;;;;;;;4993829;28;45482;-69
2021/12/21 02:29:09;;;;;;;;;26.25;15.25;;;;;;;;4993367;28;45550;-68
2021/12/21 02:31:34;;;;;;;;;24.00;14.25;;;;;;;;4993840;28;46004;-68
2021/12/21 02:33:59;;;;;;;;;22.25;18.00;;;;;;;;4997164;28;45468;-69
2021/12/21 02:36:24;;;;;;;;;35.00;19.67;;;;;;;;4997438;28;45467;-69
2021/12/21 02:38:50;;;;;;;;;27.67;16.33;;;;;;;;4996502;28;46039;-69
2021/12/21 02:41:15;;;;;;;;;22.00;18.00;;;;;;;;4996197;28;45423;-69
2021/12/21 02:43:40;;;;;;;;;24.50;19.25;;;;;;;;4996900;28;45390;-69
2021/12/21 02:46:06;;;;;;;;;17.00;15.00;;;;;;;;4996591;28;45444;-69
2021/12/21 02:48:32;;;;;;;;;25.25;16.75;;;;;;;;4996526;28;46847;-69
2021/12/21 02:50:57;;;;;;;;;29.50;17.00;;;;;;;;4996489;28;45348;-68
2021/12/21 02:53:22;;;;;;;;;21.00;18.67;;;;;;;;4993554;28;45420;-68
2021/12/21 02:55:48;;;;;;;;;25.67;16.67;;;;;;;;4996196;28;45404;-69
2021/12/21 02:58:13;;;;;;;;;16.00;14.00;;;;;;;;4996216;28;46078;-69
2021/12/21 03:00:38;;;;;;;;;17.00;14.67;;;;;;;;4996783;28;45411;-69
2021/12/21 03:03:11;;;;;;;;;17.00;12.33;;;;;;;;4996555;28;45380;-68
2021/12/21 03:05:37;;;;;;;;;25.00;19.75;;;;;;;;4996562;28;45280;-69
2021/12/21 03:10:28;;;;;;;;;27.25;17.75;;;;;;;;4995815;28;45525;-68
2021/12/21 03:15:37;;;;;;;;;21.00;17.00;;;;;;;;4992752;28;45485;-68
2021/12/21 03:18:03;;;;;;;;;20.67;16.67;;;;;;;;4996490;28;46190;-68
2021/12/21 03:20:28;;;;;;;;;26.50;17.50;;;;;;;;4996311;28;45536;-68
2021/12/21 03:22:53;;;;;;;;;17.00;17.00;;;;;;;;4996082;28;45792;-69
2021/12/21 03:25:18;;;;;;;;;17.67;17.67;;;;;;;;4996212;28;45578;-69
2021/12/21 03:27:43;;;;;;;;;26.00;16.75;;;;;;;;4996364;28;45505;-69
2021/12/21 03:30:10;;;;;;;;;18.00;15.67;;;;;;;;4996510;28;45631;-69
2021/12/21 03:32:36;;;;;;;;;14.25;14.25;;;;;;;;5011253;28;45665;-69
2021/12/21 03:35:01;;;;;;;;;22.33;18.00;;;;;;;;4995908;28;45412;-68
2021/12/21 03:37:26;;;;;;;;;25.00;19.00;;;;;;;;4996182;28;46384;-69
2021/12/21 03:39:54;;;;;;;;;14.00;14.00;;;;;;;;4995942;28;45626;-68
2021/12/21 03:42:19;;;;;;;;;16.50;14.00;;;;;;;;4995189;28;45428;-69
2021/12/21 03:44:44;;;;;;;;;20.75;14.50;;;;;;;;4994424;28;47621;-69
2021/12/21 03:47:11;;;;;;;;;22.50;15.00;;;;;;;;4995328;28;45927;-69
2021/12/21 03:49:53;;;;;;;;;23.00;14.00;;;;;;;;4995835;28;45979;-69
2021/12/21 03:52:20;;;;;;;;;9.75;6.50;;;;;;;;4990654;28;45478;-69
2021/12/21 03:54:49;;;;;;;;;16.50;15.50;;;;;;;;4995690;28;45312;-69
2021/12/21 03:57:14;;;;;;;;;21.00;14.50;;;;;;;;4996089;28;45550;-68
2021/12/21 03:59:41;;;;;;;;;21.75;13.50;;;;;;;;4995653;28;45545;-69
2021/12/21 04:02:08;;;;;;;;;18.75;16.00;;;;;;;;4995720;28;45485;-69
2021/12/21 04:04:33;;;;;;;;;21.50;17.25;;;;;;;;4995675;28;45714;-69
2021/12/21 04:06:58;;;;;;;;;17.33;14.00;;;;;;;;4995793;28;46175;-69
2021/12/21 04:09:23;;;;;;;;;12.67;11.33;;;;;;;;4995640;28;45506;-68
2021/12/21 04:11:48;;;;;;;;;17.67;15.33;;;;;;;;4995715;28;45845;-68
2021/12/21 04:14:16;;;;;;;;;23.00;14.00;;;;;;;;4995477;28;45733;-68
2021/12/21 04:16:41;;;;;;;;;21.00;12.25;;;;;;;;4992224;28;45981;-69
2021/12/21 04:19:06;;;;;;;;;15.00;12.67;;;;;;;;4991204;28;45546;-69
2021/12/21 04:21:31;;;;;;;;;15.00;12.33;;;;;;;;4988717;28;45234;-68
2021/12/21 04:23:57;;;;;;;;;14.00;11.00;;;;;;;;4995176;28;45446;-68
2021/12/21 04:26:22;;;;;;;;;17.33;15.00;;;;;;;;4995074;28;46204;-69
2021/12/21 04:28:47;;;;;;;;;15.25;13.00;;;;;;;;4995061;28;45293;-69
2021/12/21 04:31:13;;;;;;;;;14.00;11.00;;;;;;;;4995338;28;45478;-69
2021/12/21 04:33:39;;;;;;;;;16.00;11.50;;;;;;;;4996041;28;45254;-68
2021/12/21 04:36:04;;;;;;;;;19.50;15.00;;;;;;;;4994937;28;46088;-68
2021/12/21 04:38:34;;;;;;;;;21.50;13.50;;;;;;;;4994538;28;45300;-69
2021/12/21 04:41:07;;;;;;;;;14.00;11.25;;;;;;;;4994900;28;45435;-68
2021/12/21 04:43:32;;;;;;;;;17.50;11.75;;;;;;;;4993709;28;45487;-69
2021/12/21 04:45:58;;;;;;;;;16.33;12.33;;;;;;;;4994356;28;45453;-68
2021/12/21 04:48:23;;;;;;;;;17.33;12.33;;;;;;;;4995095;28;45387;-69
2021/12/21 04:50:49;;;;;;;;;11.33;11.33;;;;;;;;4994852;28;45468;-69
2021/12/21 04:53:14;;;;;;;;;15.50;11.50;;;;;;;;4994486;28;45465;-68
2021/12/21 04:55:40;;;;;;;;;19.25;14.25;;;;;;;;4994019;28;46005;-68
2021/12/21 04:58:05;;;;;;;;;14.25;11.75;;;;;;;;4994664;28;45435;-68
2021/12/21 05:00:31;;;;;;;;;13.00;11.00;;;;;;;;4995384;28;45576;-69
2021/12/21 05:02:56;;;;;;;;;19.00;14.00;;;;;;;;4994477;28;45426;-69
2021/12/21 05:05:22;;;;;;;;;18.00;13.50;;;;;;;;4994780;28;45300;-69
2021/12/21 05:07:52;;;;;;;;;19.25;15.75;;;;;;;;4994233;28;45236;-69
2021/12/21 05:10:18;;;;;;;;;15.25;14.25;;;;;;;;4994739;28;45473;-68
2021/12/21 05:12:44;;;;;;;;;16.25;12.00;;;;;;;;4994962;28;45627;-68
2021/12/21 05:15:09;;;;;;;;;17.33;11.00;;;;;;;;4994628;28;46166;-69
2021/12/21 05:17:34;;;;;;;;;11.00;10.00;;;;;;;;4994189;28;45574;-68
2021/12/21 05:19:59;;;;;;;;;20.00;13.67;;;;;;;;4994570;28;45477;-68
2021/12/21 05:22:25;;;;;;;;;17.00;12.33;;;;;;;;4993521;28;45675;-69
2021/12/21 05:24:51;;;;;;;;;9.75;8.00;;;;;;;;4994669;28;46067;-69
2021/12/21 05:27:16;;;;;;;;;18.50;11.75;;;;;;;;4994776;28;45323;-69
2021/12/21 05:29:42;;;;;;;;;20.50;13.00;;;;;;;;4994211;28;45750;-69
2021/12/21 05:32:07;;;;;;;;;19.33;13.33;;;;;;;;4994278;28;45482;-69
2021/12/21 05:34:32;;;;;;;;;16.33;13.33;;;;;;;;4994479;28;47027;-69
2021/12/21 05:36:57;;;;;;;;;22.33;12.00;;;;;;;;4993844;28;45390;-69
2021/12/21 05:39:26;;;;;;;;;21.25;13.25;;;;;;;;4994853;28;45295;-68
2021/12/21 05:41:54;;;;;;;;;17.00;11.00;;;;;;;;4994025;28;45427;-68
2021/12/21 05:44:20;;;;;;;;;16.25;12.75;;;;;;;;4993753;28;46406;-68
2021/12/21 05:46:47;;;;;;;;;21.50;17.00;;;;;;;;4993595;28;45525;-68
2021/12/21 05:49:12;;;;;;;;;11.25;8.00;;;;;;;;4994632;28;45315;-69
2021/12/21 05:51:37;;;;;;;;;14.67;14.67;;;;;;;;4994548;28;45389;-68
2021/12/21 05:54:02;;;;;;;;;11.75;11.75;;;;;;;;4993954;28;45305;-68
2021/12/21 05:56:28;;;;;;;;;16.50;13.25;;;;;;;;4993811;28;45534;-68
2021/12/21 05:58:53;;;;;;;;;16.00;12.67;;;;;;;;4994344;28;45256;-68
2021/12/21 06:01:18;;;;;;;;;13.33;11.00;;;;;;;;4994131;28;45378;-68
2021/12/21 06:03:43;;;;;;;;;20.00;13.00;;;;;;;;4993967;28;47800;-69
2021/12/21 06:06:14;;;;;;;;;11.00;7.25;;;;;;;;4993704;28;45379;-69
2021/12/21 06:08:41;;;;;;;;;19.75;14.00;;;;;;;;4997408;28;45460;-68
2021/12/21 06:11:07;;;;;;;;;23.50;15.25;;;;;;;;4996825;28;45395;-69
2021/12/21 06:16:27;;;;;;;;;14.50;9.00;;;;;;;;4991799;28;46005;-69
2021/12/21 06:26:49;;;;;;;;;15.50;13.25;;;;;;;;4996802;28;45333;-69
2021/12/21 06:29:14;;;;;;;;;14.33;10.67;;;;;;;;4997221;28;45309;-69
2021/12/21 06:31:40;;;;;;;;;13.50;11.00;;;;;;;;4997214;28;45297;-68
2021/12/21 06:34:05;;;;;;;;;14.25;10.25;;;;;;;;4996581;28;45556;-68
2021/12/21 06:36:30;;;;;;;;;21.50;13.25;;;;;;;;4997336;28;45721;-68
2021/12/21 06:38:56;;;;;;;;;13.75;8.00;;;;;;;;4996551;28;45417;-68
2021/12/21 06:41:21;;;;;;;;;17.25;12.00;;;;;;;;4996727;28;45537;-68
2021/12/21 06:43:47;;;;;;;;;15.75;14.00;;;;;;;;4996513;28;45330;-68
2021/12/21 06:46:44;;;;;;;;;17.75;14.00;;;;;;;;4996544;28;45515;-69
2021/12/21 06:51:51;;;;;;;;;19.00;14.00;;;;;;;;4994493;28;45350;-69
2021/12/21 06:54:17;;;;;;;;;13.00;11.25;;;;;;;;4996896;28;46034;-69
2021/12/21 06:56:42;;;;;;;;;20.75;14.00;;;;;;;;4995858;28;45490;-68
2021/12/21 06:59:07;;;;;;;;;15.67;14.00;;;;;;;;4996391;28;45446;-69
2021/12/21 07:01:33;;;;;;;;;18.50;13.00;;;;;;;;4996277;28;45545;-68
2021/12/21 07:03:59;;;;;;;;;19.25;15.00;;;;;;;;4996362;28;46120;-69
2021/12/21 07:06:24;;;;;;;;;21.75;15.75;;;;;;;;4996808;28;45480;-69
2021/12/21 07:19:17;;;;;;;;;16.25;16.25;;;;;;;;4995924;28;45547;-69
2021/12/21 07:21:42;;;;;;;;;21.67;14.00;;;;;;;;4996527;28;45478;-68
2021/12/21 07:24:07;;;;;;;;;14.00;13.33;;;;;;;;4995041;28;47168;-69
2021/12/21 07:26:32;;;;;;;;;16.33;13.00;;;;;;;;4995010;28;45412;-68
2021/12/21 07:28:57;;;;;;;;;16.00;11.00;;;;;;;;4995866;28;45390;-69
2021/12/21 07:31:23;;;;;;;;;16.00;14.67;;;;;;;;4995593;28;45446;-69
2021/12/21 07:33:48;;;;;;;;;16.75;11.50;;;;;;;;4996000;28;46328;-69
2021/12/21 07:36:13;;;;;;;;;17.00;11.00;;;;;;;;4996636;28;45464;-69
2021/12/21 07:38:39;;;;;;;;;16.33;15.00;;;;;;;;4995873;28;45367;-67
2021/12/21 07:41:04;;;;;;;;;16.33;13.33;;;;;;;;4995844;28;45386;-69
2021/12/21 07:43:30;;;;;;;;;15.00;10.00;;;;;;;;4995724;28;46260;-69
2021/12/21 07:45:55;;;;;;;;;20.00;14.50;;;;;;;;4995284;28;45402;-69
2021/12/21 07:48:21;;;;;;;;;21.50;14.75;;;;;;;;4996490;28;45340;-69
2021/12/21 07:50:46;;;;;;;;;17.50;13.50;;;;;;;;4995672;28;45420;-68
2021/12/21 07:53:13;;;;;;;;;18.25;15.00;;;;;;;;4993771;28;48332;-68
2021/12/21 07:55:38;;;;;;;;;23.00;13.25;;;;;;;;4995588;28;45912;-68
2021/12/21 07:58:03;;;;;;;;;14.00;12.33;;;;;;;;4995897;28;45326;-68
2021/12/21 08:00:28;;;;;;;;;13.33;10.00;;;;;;;;4995742;28;45281;-69
2021/12/21 08:02:54;;;;;;;;;18.33;13.67;;;;;;;;4994855;28;45455;-69
2021/12/21 08:05:20;;;;;;;;;24.50;13.25;;;;;;;;4995498;28;45543;-69
2021/12/21 08:07:56;;;;;;;;;15.75;13.25;;;;;;;;4995484;28;45293;-69
2021/12/21 08:10:42;;;;;;;;;17.50;15.50;;;;;;;;4995600;28;45595;-69
2021/12/21 08:13:07;;;;;;;;;17.00;11.50;;;;;;;;4980127;28;46106;-69
2021/12/21 08:15:32;;;;;;;;;17.33;13.33;;;;;;;;4995492;28;45429;-69
2021/12/21 08:17:57;;;;;;;;;15.67;13.67;;;;;;;;4995276;28;45558;-69
2021/12/21 08:20:23;;;;;;;;;18.67;14.67;;;;;;;;4995133;28;45428;-69
2021/12/21 08:22:48;;;;;;;;;15.67;14.00;;;;;;;;4994956;28;45938;-69
2021/12/21 08:25:14;;;;;;;;;27.25;17.00;;;;;;;;4995210;28;45489;-69
2021/12/21 08:27:39;;;;;;;;;20.25;16.50;;;;;;;;4995659;28;45505;-69
2021/12/21 08:30:05;;;;;;;;;13.33;13.33;;;;;;;;4994398;28;45388;-68
2021/12/21 08:32:30;;;;;;;;;25.00;15.50;;;;;;;;5009185;28;48380;-68
2021/12/21 08:34:55;;;;;;;;;22.33;17.00;;;;;;;;5009868;28;45380;-69
2021/12/21 08:37:20;;;;;;;;;14.67;13.00;;;;;;;;4995425;28;45538;-68
2021/12/21 08:39:46;;;;;;;;;21.00;17.67;;;;;;;;4994982;28;45523;-68
2021/12/21 08:42:13;;;;;;;;;21.00;18.00;;;;;;;;4995048;28;45364;-69
2021/12/21 08:44:39;;;;;;;;;18.75;15.25;;;;;;;;4994329;28;45573;-69
2021/12/21 08:47:04;;;;;;;;;22.75;19.75;;;;;;;;4994740;28;45384;-69
2021/12/21 08:49:30;;;;;;;;;12.25;12.25;;;;;;;;4994992;28;45526;-69
2021/12/21 08:51:56;;;;;;;;;18.25;15.25;;;;;;;;4995195;28;45608;-69
2021/12/21 08:54:21;;;;;;;;;23.25;16.00;;;;;;;;4995307;28;45538;-69
2021/12/21 08:56:48;;;;;;;;;19.25;14.25;;;;;;;;4993333;28;45361;-69
2021/12/21 08:59:15;;;;;;;;;19.00;15.00;;;;;;;;4994296;28;45373;-68
2021/12/21 09:01:40;;;;;;;;;21.50;17.50;;;;;;;;4994072;28;45506;-68
2021/12/21 09:04:05;;;;;;;;;18.00;17.00;;;;;;;;4994458;28;45325;-69
2021/12/21 09:06:30;;;;;;;;;21.33;18.00;;;;;;;;4995429;28;45310;-68
2021/12/21 09:08:56;;;;;;;;;15.75;13.75;;;;;;;;4994396;28;45264;-69
2021/12/21 09:11:21;;;;;;;;;21.67;16.00;;;;;;;;4994337;28;46182;-69
2021/12/21 09:13:46;;;;;;;;;19.50;14.75;;;;;;;;4994086;28;45241;-69
2021/12/21 09:16:12;;;;;;;;;19.25;16.75;;;;;;;;4994769;28;45295;-69
2021/12/21 09:18:37;;;;;;;;;11.33;9.33;;;;;;;;4994523;28;45357;-69
2021/12/21 09:21:02;;;;;;;;;23.00;16.33;;;;;;;;4993855;28;46199;-68
2021/12/21 09:23:28;;;;;;;;;23.67;17.33;;;;;;;;4987767;28;45354;-69
2021/12/21 09:25:53;;;;;;;;;21.75;16.50;;;;;;;;4990610;28;45367;-69
2021/12/21 09:28:19;;;;;;;;;21.75;19.00;;;;;;;;4994054;28;45442;-69
2021/12/21 09:30:44;;;;;;;;;22.33;17.33;;;;;;;;4994578;28;45497;-69
2021/12/21 09:33:09;;;;;;;;;19.67;17.33;;;;;;;;4994435;28;45511;-69
2021/12/21 09:35:34;;;;;;;;;22.00;20.00;;;;;;;;4994235;28;45822;-69
2021/12/21 09:38:00;;;;;;;;;27.25;18.50;;;;;;;;4994665;28;45497;-69
2021/12/21 09:40:28;;;;;;;;;25.75;16.50;;;;;;;;4993814;28;45546;-68
2021/12/21 09:42:53;;;;;;;;;20.75;16.50;;;;;;;;4997667;28;45433;-69
2021/12/21 09:45:18;;;;;;;;;24.00;17.50;;;;;;;;4996277;28;45482;-69
2021/12/21 09:47:44;;;;;;;;;23.00;20.33;;;;;;;;4997418;28;45374;-67
2021/12/21 09:50:11;;;;;;;;;23.25;17.75;;;;;;;;4996470;28;46065;-69
2021/12/21 09:52:36;;;;;;;;;23.75;18.00;;;;;;;;4997450;28;45497;-68
2021/12/21 09:55:03;;;;;;;;;23.75;19.75;;;;;;;;4997076;28;45293;-68
2021/12/21 09:57:29;;;;;;;;;18.00;14.00;;;;;;;;4986155;28;45380;-68
2021/12/21 09:59:54;;;;;;;;;25.00;19.75;;;;;;;;4995476;28;46188;-68
2021/12/21 10:02:22;;;;;;;;;19.50;18.00;;;;;;;;4997473;28;45317;-69
2021/12/21 10:04:49;;;;;;;;;21.25;19.50;;;;;;;;4997313;28;45754;-68
2021/12/21 10:07:15;;;;;;;;;21.75;18.75;;;;;;;;4996244;28;45503;-68
2021/12/21 10:09:43;;;;;;;;;24.50;18.75;;;;;;;;4997679;28;45892;-68
2021/12/21 10:12:09;;;;;;;;;24.25;20.25;;;;;;;;4997026;28;45708;-68
2021/12/21 10:14:34;;;;;;;;;19.75;18.50;;;;;;;;4995823;28;45418;-68
2021/12/21 10:17:00;;;;;;;;;28.00;20.67;;;;;;;;4997086;28;45552;-68
2021/12/21 10:19:26;;;;;;;;;16.75;16.75;;;;;;;;4996926;28;45458;-69
2021/12/21 10:21:51;;;;;;;;;25.33;20.33;;;;;;;;4997505;28;45363;-69
2021/12/21 10:24:23;;;;;;;;;26.33;21.67;;;;;;;;4997433;28;45826;-68
2021/12/21 10:26:48;;;;;;;;;22.50;17.50;;;;;;;;4996619;28;45380;-68
2021/12/21 10:29:15;;;;;;;;;28.33;20.00;;;;;;;;4995539;28;46223;-68
2021/12/21 10:31:42;;;;;;;;;16.25;15.50;;;;;;;;4995506;28;46812;-68
2021/12/21 10:34:12;;;;;;;;;23.25;16.25;;;;;;;;4996987;28;45371;-68
2021/12/21 10:36:41;;;;;;;;;24.25;17.75;;;;;;;;4993939;28;45365;-68
2021/12/21 10:39:06;;;;;;;;;20.00;17.50;;;;;;;;4996911;28;46114;-68
2021/12/21 10:41:33;;;;;;;;;29.67;21.00;;;;;;;;4996372;28;45880;-68
2021/12/21 10:43:59;;;;;;;;;27.50;20.25;;;;;;;;4996809;28;45525;-68
2021/12/21 10:46:28;;;;;;;;;18.50;15.50;;;;;;;;4997140;28;45459;-68
2021/12/21 10:49:10;;;;;;;;;19.25;18.25;;;;;;;;4995041;28;46111;-68
2021/12/21 10:51:36;;;;;;;;;21.75;18.25;;;;;;;;4993045;28;46077;-68
2021/12/21 10:54:02;;;;;;;;;28.25;21.25;;;;;;;;4995457;28;45482;-69
2021/12/21 10:56:27;;;;;;;;;28.75;22.25;;;;;;;;4996470;28;45464;-68
2021/12/21 10:58:52;;;;;;;;;23.33;18.33;;;;;;;;4996666;28;46167;-68
2021/12/21 11:01:23;;;;;;;;;10.50;8.75;;;;;;;;4996062;28;45799;-68
2021/12/21 11:03:54;;;;;;;;;19.75;18.25;;;;;;;;4996690;28;45435;-69
2021/12/21 11:06:22;;;;;;;;;23.25;20.50;;;;;;;;4994812;28;45387;-69
2021/12/21 11:08:48;;;;;;;;;27.50;22.75;;;;;;;;4995771;28;46147;-68
2021/12/21 11:11:27;;;;;;;;;23.00;20.50;;;;;;;;4996186;28;46039;-68
2021/12/21 11:14:07;;;;;;;;;28.75;17.25;;;;;;;;4996283;28;45452;-68
2021/12/21 11:16:37;;;;;;;;;27.75;22.25;;;;;;;;4996418;28;45463;-68
2021/12/21 11:19:03;;;;;;;;;26.00;21.50;;;;;;;;4996188;28;46035;-68
2021/12/21 11:21:29;;;;;;;;;26.50;21.50;;;;;;;;4996822;28;45445;-68
2021/12/21 11:23:55;;;;;;;;;32.00;20.50;;;;;;;;4996126;28;45448;-68
2021/12/21 11:26:21;;;;;;;;;27.50;21.50;;;;;;;;4995688;28;45502;-68
2021/12/21 11:28:49;;;;;;;;;27.00;21.75;;;;;;;;4995997;28;45383;-68
2021/12/21 11:31:17;;;;;;;;;32.50;29.75;;;;;;;;4995243;28;45480;-68
2021/12/21 11:33:44;;;;;;;;;23.25;20.75;;;;;;;;4996155;28;45319;-68
2021/12/21 11:38:56;;;;;;;;;28.25;22.25;;;;;;;;4995194;28;45490;-68
2021/12/21 11:41:22;;;;;;;;;35.00;22.00;;;;;;;;4996111;28;45326;-68
2021/12/21 11:43:53;;;;;;;;;30.25;19.50;;;;;;;;4995825;28;45448;-68
2021/12/21 11:46:25;;;;;;;;;26.50;20.25;;;;;;;;4995935;28;45958;-68
2021/12/21 11:48:58;;;;;;;;;26.00;19.50;;;;;;;;4995562;28;45593;-68
2021/12/21 11:51:24;;;;;;;;;27.50;22.75;;;;;;;;5011461;28;45968;-68
2021/12/21 11:53:50;;;;;;;;;26.75;22.00;;;;;;;;4993906;28;45584;-68
2021/12/21 11:56:20;;;;;;;;;26.25;21.75;;;;;;;;4995555;28;45305;-68
2021/12/21 11:58:48;;;;;;;;;35.75;27.50;;;;;;;;4995380;28;45301;-68
2021/12/21 12:01:20;;;;;;;;;20.50;15.00;;;;;;;;4994919;28;45867;-68
2021/12/21 12:03:54;;;;;;;;;21.50;18.25;;;;;;;;4996204;28;45730;-68
2021/12/21 12:06:20;;;;;;;;;22.00;18.25;;;;;;;;4995649;28;45270;-68
2021/12/21 12:08:49;;;;;;;;;23.25;18.00;;;;;;;;4995319;28;45377;-68
2021/12/21 12:11:25;;;;;;;;;19.25;18.00;;;;;;;;4995591;28;45827;-68
2021/12/21 12:14:01;;;;;;;;;23.00;20.50;;;;;;;;4995910;28;45406;-68
2021/12/21 12:16:27;;;;;;;;;25.00;18.75;;;;;;;;4994220;28;45525;-68
2021/12/21 12:18:52;;;;;;;;;25.75;19.75;;;;;;;;4995589;28;45438;-68
2021/12/21 12:21:19;;;;;;;;;21.00;18.75;;;;;;;;4995345;28;45396;-68
2021/12/21 12:23:46;;;;;;;;;22.25;18.00;;;;;;;;4995283;28;45335;-68
2021/12/21 12:26:19;;;;;;;;;21.50;18.25;;;;;;;;4995342;28;45261;-68
2021/12/21 12:28:45;;;;;;;;;26.50;19.00;;;;;;;;4995152;28;47846;-68
2021/12/21 12:31:10;;;;;;;;;17.33;16.67;;;;;;;;4993679;28;45537;-68
2021/12/21 12:33:37;;;;;;;;;27.00;21.67;;;;;;;;4995868;28;45464;-68
2021/12/21 12:36:03;;;;;;;;;21.25;19.00;;;;;;;;4995063;28;47777;-68
2021/12/21 12:38:29;;;;;;;;;25.50;21.00;;;;;;;;4994769;28;46109;-68
2021/12/21 12:40:56;;;;;;;;;21.75;17.25;;;;;;;;4995003;28;45709;-68
2021/12/21 12:43:25;;;;;;;;;22.00;18.00;;;;;;;;4995100;28;47626;-68
2021/12/21 12:45:53;;;;;;;;;33.00;22.25;;;;;;;;4995453;28;45360;-68
2021/12/21 12:48:23;;;;;;;;;28.25;22.00;;;;;;;;4995097;28;45475;-68
2021/12/21 12:50:49;;;;;;;;;24.25;18.00;;;;;;;;4994354;28;45379;-68
2021/12/21 12:53:14;;;;;;;;;22.25;20.00;;;;;;;;4995212;28;45423;-68
2021/12/21 12:55:41;;;;;;;;;25.33;20.00;;;;;;;;4994908;28;45446;-68
2021/12/21 12:58:14;;;;;;;;;22.50;18.25;;;;;;;;4994682;28;45469;-68
2021/12/21 13:00:41;;;;;;;;;18.00;17.25;;;;;;;;4991087;28;45427;-68
2021/12/21 13:03:08;;;;;;;;;20.00;14.00;;;;;;;;4994785;28;45800;-68
2021/12/21 13:05:40;;;;;;;;;24.25;19.75;;;;;;;;4994182;28;45672;-68
2021/12/21 13:08:16;;;;;;;;;27.00;24.25;;;;;;;;4994598;28;45321;-68
2021/12/21 13:10:43;;;;;;;;;22.25;16.50;;;;;;;;4994486;28;45527;-68
2021/12/21 13:13:09;;;;;;;;;22.00;18.50;;;;;;;;4979005;28;45479;-68
2021/12/21 13:15:39;;;;;;;;;27.00;21.00;;;;;;;;4994380;28;45413;-68
2021/12/21 13:18:05;;;;;;;;;21.25;18.25;;;;;;;;4994278;28;45297;-68
2021/12/21 13:20:31;;;;;;;;;21.75;18.50;;;;;;;;4994146;28;45607;-68
2021/12/21 13:23:07;;;;;;;;;27.25;18.00;;;;;;;;4994173;28;45551;-68
2021/12/21 13:25:32;;;;;;;;;24.25;21.00;;;;;;;;4994431;28;45284;-68
2021/12/21 13:28:06;;;;;;;;;16.67;14.00;;;;;;;;4994729;28;45313;-68
2021/12/21 13:30:31;;;;;;;;;22.25;17.25;;;;;;;;5008681;28;45964;-68
2021/12/21 13:32:57;;;;;;;;;25.33;18.67;;;;;;;;4994123;28;45627;-68
2021/12/21 13:35:26;;;;;;;;;27.75;20.00;;;;;;;;4993686;28;45400;-68
2021/12/21 13:37:51;;;;;;;;;30.50;18.00;;;;;;;;4994095;28;46097;-68
2021/12/21 13:40:17;;;;;;;;;18.33;18.33;;;;;;;;4994160;28;45337;-68
2021/12/21 13:42:42;;;;;;;;;22.67;18.00;;;;;;;;4994487;28;45462;-68
2021/12/21 13:45:07;;;;;;;;;26.67;21.00;;;;;;;;4994775;28;45372;-68
2021/12/21 13:47:33;;;;;;;;;29.75;24.50;;;;;;;;4993873;28;46326;-69
2021/12/21 13:50:16;;;;;;;;;29.33;22.33;;;;;;;;4993559;28;45265;-68
2021/12/21 13:52:44;;;;;;;;;27.00;19.00;;;;;;;;4994303;28;45508;-68
2021/12/21 13:55:30;;;;;;;;;19.50;17.50;;;;;;;;4978789;28;45512;-68
2021/12/21 13:57:56;;;;;;;;;23.75;19.00;;;;;;;;4992391;28;45417;-68
2021/12/21 14:00:26;;;;;;;;;19.25;13.75;;;;;;;;4992158;28;45497;-68
2021/12/21 14:03:01;;;;;;;;;33.50;23.75;;;;;;;;4993516;28;45260;-68
2021/12/21 14:05:41;;;;;;;;;22.50;17.50;;;;;;;;4989867;28;45507;-68
2021/12/21 14:08:06;;;;;;;;;25.50;20.00;;;;;;;;4993507;28;45507;-68
2021/12/21 14:10:38;;;;;;;;;24.67;21.33;;;;;;;;4993941;28;45572;-68
2021/12/21 14:13:03;;;;;;;;;30.25;19.50;;;;;;;;4994318;28;45503;-68
2021/12/21 14:15:34;;;;;;;;;24.33;24.00;;;;;;;;4994674;28;45359;-68
2021/12/21 14:17:59;;;;;;;;;25.00;19.25;;;;;;;;4993201;28;45434;-69
2021/12/21 14:20:28;;;;;;;;;24.67;20.00;;;;;;;;4993628;28;45340;-68
2021/12/21 14:22:54;;;;;;;;;25.50;21.50;;;;;;;;4993651;28;45366;-68
2021/12/21 14:25:20;;;;;;;;;20.25;17.75;;;;;;;;4993946;28;45288;-68
2021/12/21 14:27:46;;;;;;;;;23.75;19.00;;;;;;;;4994137;28;46033;-68
2021/12/21 14:30:16;;;;;;;;;20.00;19.75;;;;;;;;4996232;28;45664;-68
2021/12/21 14:33:03;;;;;;;;;20.50;17.25;;;;;;;;4993447;28;45372;-68
2021/12/21 14:35:27;;;;;;;;;30.50;22.75;;;;;;;;4996755;28;45459;-68
2021/12/21 14:37:52;;;;;;;;;20.67;16.67;;;;;;;;4996823;28;45411;-68
2021/12/21 14:40:18;;;;;;;;;23.33;19.67;;;;;;;;4996835;28;45379;-68
2021/12/21 14:42:49;;;;;;;;;23.50;20.75;;;;;;;;4997308;28;45410;-68
2021/12/21 14:45:14;;;;;;;;;26.00;20.50;;;;;;;;4996915;28;45559;-68
2021/12/21 14:47:40;;;;;;;;;25.00;20.33;;;;;;;;4996076;28;45371;-68
2021/12/21 14:50:09;;;;;;;;;15.75;14.25;;;;;;;;4996063;28;45437;-68
2021/12/21 14:52:43;;;;;;;;;24.50;19.25;;;;;;;;4991642;28;45467;-68
2021/12/21 14:55:11;;;;;;;;;20.50;15.75;;;;;;;;4980983;28;45512;-68
2021/12/21 14:57:44;;;;;;;;;22.75;19.50;;;;;;;;4992834;28;45434;-68
2021/12/21 15:00:11;;;;;;;;;19.25;14.75;;;;;;;;4996499;28;45785;-68
2021/12/21 15:05:04;;;;;;;;;24.33;22.00;;;;;;;;4996451;28;45482;-68
2021/12/21 15:07:30;;;;;;;;;26.50;21.25;;;;;;;;4995201;28;49177;-68
2021/12/21 15:09:55;;;;;;;;;32.75;22.75;;;;;;;;4995208;28;45443;-68
2021/12/21 15:12:21;;;;;;;;;25.75;19.25;;;;;;;;4997523;28;45530;-68
2021/12/21 15:14:47;;;;;;;;;16.50;15.75;;;;;;;;4996016;28;45515;-68
2021/12/21 15:17:13;;;;;;;;;22.75;19.00;;;;;;;;4996178;28;46039;-68
2021/12/21 15:19:38;;;;;;;;;22.50;17.75;;;;;;;;4996303;28;45600;-69
2021/12/21 15:22:03;;;;;;;;;34.67;20.33;;;;;;;;4995761;28;45475;-68
2021/12/21 15:24:29;;;;;;;;;28.50;20.50;;;;;;;;4996556;28;45312;-68
2021/12/21 15:26:54;;;;;;;;;24.67;19.67;;;;;;;;4994401;28;47587;-68